createdAt,value
2018-10-07T00:00:07.938Z,986.44
2018-10-07T00:01:08.029Z,986.44
2018-10-07T00:02:08.122Z,986.43
2018-10-07T00:03:08.210Z,986.44
2018-10-07T00:04:08.302Z,986.44
2018-10-07T00:05:08.393Z,986.45
2018-10-07T00:06:08.487Z,986.43
2018-10-07T00:07:08.573Z,986.47
2018-10-07T00:08:08.671Z,986.47
2018-10-07T00:09:08.763Z,986.51
2018-10-07T00:10:08.873Z,986.51
2018-10-07T00:11:08.967Z,986.48
2018-10-07T00:12:09.059Z,986.55
2018-10-07T00:13:09.227Z,986.53
2018-10-07T00:14:09.196Z,986.52
2018-10-07T00:15:09.287Z,986.53
2018-10-07T00:16:09.380Z,986.48
2018-10-07T00:17:09.478Z,986.52
2018-10-07T00:18:09.572Z,986.52
2018-10-07T00:19:09.699Z,986.53
2018-10-07T00:20:09.718Z,986.56
2018-10-07T00:21:09.826Z,986.58
2018-10-07T00:22:09.919Z,986.55
2018-10-07T00:23:10.011Z,986.53
2018-10-07T00:24:10.103Z,986.55
2018-10-07T00:25:10.197Z,986.51
2018-10-07T00:26:10.288Z,986.55
2018-10-07T00:27:10.378Z,986.53
2018-10-07T00:28:10.476Z,986.55
2018-10-07T00:29:10.567Z,986.57
2018-10-07T00:30:10.657Z,986.62
2018-10-07T00:31:10.754Z,986.58
2018-10-07T00:32:10.865Z,986.61
2018-10-07T00:33:10.958Z,986.62
2018-10-07T00:34:11.052Z,986.62
2018-10-07T00:35:11.142Z,986.61
2018-10-07T00:36:11.271Z,986.59
2018-10-07T00:37:11.287Z,986.58
2018-10-07T00:38:11.384Z,986.59
2018-10-07T00:39:11.473Z,986.60
2018-10-07T00:40:11.565Z,986.62
2018-10-07T00:41:11.661Z,986.70
2018-10-07T00:42:11.752Z,986.68
2018-10-07T00:43:11.845Z,986.68
2018-10-07T00:44:11.938Z,986.69
2018-10-07T00:45:12.030Z,986.76
2018-10-07T00:46:12.122Z,986.73
2018-10-07T00:47:12.217Z,986.71
2018-10-07T00:48:12.308Z,986.76
2018-10-07T00:49:12.402Z,986.78
2018-10-07T00:50:12.495Z,986.78
2018-10-07T00:51:12.603Z,986.80
2018-10-07T00:52:12.695Z,986.79
2018-10-07T00:53:12.790Z,986.80
2018-10-07T00:54:12.881Z,986.80
2018-10-07T00:55:12.972Z,986.80
2018-10-07T00:56:13.064Z,986.80
2018-10-07T00:57:13.159Z,986.83
2018-10-07T00:58:13.248Z,986.80
2018-10-07T00:59:13.343Z,986.83
2018-10-07T01:00:13.454Z,986.81
2018-10-07T01:01:13.532Z,986.79
2018-10-07T01:02:13.622Z,986.82
2018-10-07T01:03:13.716Z,986.83
2018-10-07T01:04:13.808Z,986.83
2018-10-07T01:05:13.908Z,986.85
2018-10-07T01:06:13.997Z,986.82
2018-10-07T01:07:14.088Z,986.78
2018-10-07T01:08:14.182Z,986.79
2018-10-07T01:09:14.275Z,986.81
2018-10-07T01:10:14.366Z,986.79
2018-10-07T01:11:14.459Z,986.75
2018-10-07T01:12:14.553Z,986.81
2018-10-07T01:13:14.642Z,986.80
2018-10-07T01:14:14.734Z,986.78
2018-10-07T01:15:14.824Z,986.76
2018-10-07T01:16:14.920Z,986.83
2018-10-07T01:17:15.008Z,986.83
2018-10-07T01:18:15.103Z,986.85
2018-10-07T01:19:15.194Z,986.80
2018-10-07T01:20:15.286Z,986.82
2018-10-07T01:21:15.380Z,986.82
2018-10-07T01:22:15.472Z,986.82
2018-10-07T01:23:15.566Z,986.84
2018-10-07T01:24:15.660Z,986.80
2018-10-07T01:25:15.753Z,986.79
2018-10-07T01:26:15.843Z,986.82
2018-10-07T01:27:15.937Z,986.81
2018-10-07T01:28:16.033Z,986.88
2018-10-07T01:29:16.127Z,986.92
2018-10-07T01:30:16.220Z,986.91
2018-10-07T01:31:16.312Z,986.90
2018-10-07T01:32:16.407Z,986.93
2018-10-07T01:33:16.499Z,986.91
2018-10-07T01:34:16.593Z,986.92
2018-10-07T01:35:16.685Z,986.90
2018-10-07T01:36:16.774Z,986.90
2018-10-07T01:37:16.873Z,986.92
2018-10-07T01:38:16.959Z,986.92
2018-10-07T01:39:17.051Z,986.94
2018-10-07T01:40:17.145Z,986.99
2018-10-07T01:41:17.238Z,986.96
2018-10-07T01:42:17.333Z,986.93
2018-10-07T01:43:17.423Z,986.92
2018-10-07T01:44:17.520Z,986.94
2018-10-07T01:45:17.611Z,986.90
2018-10-07T01:46:17.704Z,986.88
2018-10-07T01:47:17.796Z,986.88
2018-10-07T01:48:17.886Z,986.91
2018-10-07T01:49:17.997Z,986.90
2018-10-07T01:50:18.086Z,986.91
2018-10-07T01:51:18.179Z,986.91
2018-10-07T01:52:18.270Z,986.91
2018-10-07T01:53:18.367Z,986.96
2018-10-07T01:54:18.462Z,986.92
2018-10-07T01:55:18.553Z,986.97
2018-10-07T01:56:18.640Z,986.96
2018-10-07T01:57:18.735Z,986.96
2018-10-07T01:58:18.823Z,986.98
2018-10-07T01:59:18.955Z,986.98
2018-10-07T02:00:19.009Z,987.02
2018-10-07T02:01:19.106Z,987.04
2018-10-07T02:02:19.199Z,987.06
2018-10-07T02:03:19.290Z,987.04
2018-10-07T02:04:19.381Z,987.05
2018-10-07T02:05:19.568Z,987.08
2018-10-07T02:06:19.554Z,987.02
2018-10-07T02:07:19.645Z,987.09
2018-10-07T02:08:19.739Z,987.10
2018-10-07T02:09:19.832Z,987.12
2018-10-07T02:10:19.925Z,987.10
2018-10-07T02:11:20.013Z,987.11
2018-10-07T02:12:20.105Z,987.10
2018-10-07T02:13:20.198Z,987.08
2018-10-07T02:14:20.293Z,987.10
2018-10-07T02:15:20.378Z,987.10
2018-10-07T02:16:20.475Z,987.07
2018-10-07T02:17:20.565Z,987.07
2018-10-07T02:18:20.659Z,987.08
2018-10-07T02:19:20.750Z,987.08
2018-10-07T02:20:20.842Z,987.07
2018-10-07T02:21:20.945Z,987.06
2018-10-07T02:22:21.038Z,987.11
2018-10-07T02:23:21.126Z,987.11
2018-10-07T02:24:21.218Z,987.09
2018-10-07T02:25:21.310Z,987.10
2018-10-07T02:26:21.400Z,987.11
2018-10-07T02:27:21.491Z,987.15
2018-10-07T02:28:21.576Z,987.17
2018-10-07T02:29:21.664Z,987.17
2018-10-07T02:30:21.760Z,987.19
2018-10-07T02:31:21.850Z,987.17
2018-10-07T02:32:21.950Z,987.24
2018-10-07T02:33:22.033Z,987.27
2018-10-07T02:34:22.126Z,987.26
2018-10-07T02:35:22.216Z,987.22
2018-10-07T02:36:22.311Z,987.23
2018-10-07T02:37:22.407Z,987.26
2018-10-07T02:38:22.493Z,987.30
2018-10-07T02:39:22.585Z,987.31
2018-10-07T02:40:22.681Z,987.29
2018-10-07T02:41:22.777Z,987.31
2018-10-07T02:42:22.870Z,987.32
2018-10-07T02:43:22.964Z,987.38
2018-10-07T02:44:23.059Z,987.37
2018-10-07T02:45:23.148Z,987.37
2018-10-07T02:46:23.241Z,987.44
2018-10-07T02:47:23.325Z,987.47
2018-10-07T02:48:23.415Z,987.48
2018-10-07T02:49:23.509Z,987.50
2018-10-07T02:50:23.599Z,987.51
2018-10-07T02:51:23.691Z,987.49
2018-10-07T02:52:23.782Z,987.52
2018-10-07T02:53:23.958Z,987.49
2018-10-07T02:54:23.968Z,987.50
2018-10-07T02:55:24.060Z,987.49
2018-10-07T02:56:24.148Z,987.52
2018-10-07T02:57:24.243Z,987.51
2018-10-07T02:58:24.334Z,987.52
2018-10-07T02:59:24.432Z,987.56
2018-10-07T03:00:24.523Z,987.59
2018-10-07T03:01:24.615Z,987.59
2018-10-07T03:02:24.707Z,987.54
2018-10-07T03:03:24.827Z,987.62
2018-10-07T03:04:24.949Z,987.58
2018-10-07T03:05:25.011Z,987.58
2018-10-07T03:06:25.104Z,987.62
2018-10-07T03:07:25.195Z,987.63
2018-10-07T03:08:25.283Z,987.68
2018-10-07T03:09:25.375Z,987.68
2018-10-07T03:10:25.500Z,987.67
2018-10-07T03:11:25.559Z,987.65
2018-10-07T03:12:25.654Z,987.66
2018-10-07T03:13:25.749Z,987.69
2018-10-07T03:14:25.837Z,987.70
2018-10-07T03:15:25.931Z,987.72
2018-10-07T03:16:26.021Z,987.67
2018-10-07T03:17:26.111Z,987.64
2018-10-07T03:18:26.204Z,987.66
2018-10-07T03:19:26.285Z,987.63
2018-10-07T03:20:26.393Z,987.63
2018-10-07T03:21:26.482Z,987.64
2018-10-07T03:22:26.571Z,987.69
2018-10-07T03:23:26.664Z,987.71
2018-10-07T03:24:26.761Z,987.70
2018-10-07T03:25:26.860Z,987.68
2018-10-07T03:26:26.956Z,987.68
2018-10-07T03:27:27.044Z,987.71
2018-10-07T03:28:27.139Z,987.68
2018-10-07T03:29:27.289Z,987.73
2018-10-07T03:30:27.323Z,987.80
2018-10-07T03:31:27.412Z,987.84
2018-10-07T03:32:27.502Z,987.81
2018-10-07T03:33:27.585Z,987.88
2018-10-07T03:34:27.679Z,987.92
2018-10-07T03:35:27.775Z,987.96
2018-10-07T03:36:27.867Z,987.99
2018-10-07T03:37:27.957Z,987.98
2018-10-07T03:38:28.051Z,988.04
2018-10-07T03:39:28.142Z,987.99
2018-10-07T03:40:28.237Z,988.00
2018-10-07T03:41:28.332Z,988.02
2018-10-07T03:42:28.419Z,988.02
2018-10-07T03:43:28.515Z,988.01
2018-10-07T03:44:28.602Z,988.02
2018-10-07T03:45:28.694Z,988.00
2018-10-07T03:46:28.784Z,988.00
2018-10-07T03:47:28.877Z,988.05
2018-10-07T03:48:28.971Z,988.08
2018-10-07T03:49:29.063Z,988.04
2018-10-07T03:50:29.154Z,988.07
2018-10-07T03:51:29.239Z,988.04
2018-10-07T03:52:29.343Z,988.08
2018-10-07T03:53:29.429Z,988.15
2018-10-07T03:54:29.522Z,988.20
2018-10-07T03:55:29.624Z,988.19
2018-10-07T03:56:29.713Z,988.20
2018-10-07T03:57:29.816Z,988.24
2018-10-07T03:58:29.905Z,988.25
2018-10-07T03:59:30.000Z,988.20
2018-10-07T04:00:30.094Z,988.18
2018-10-07T04:01:30.188Z,988.20
2018-10-07T04:02:30.272Z,988.23
2018-10-07T04:03:30.364Z,988.20
2018-10-07T04:04:30.456Z,988.22
2018-10-07T04:05:30.545Z,988.22
2018-10-07T04:06:30.641Z,988.23
2018-10-07T04:07:30.729Z,988.25
2018-10-07T04:08:30.824Z,988.25
2018-10-07T04:09:30.917Z,988.30
2018-10-07T04:10:31.006Z,988.31
2018-10-07T04:11:31.102Z,988.34
2018-10-07T04:12:31.189Z,988.33
2018-10-07T04:13:31.279Z,988.38
2018-10-07T04:14:31.372Z,988.40
2018-10-07T04:15:31.463Z,988.42
2018-10-07T04:16:31.555Z,988.39
2018-10-07T04:17:31.642Z,988.42
2018-10-07T04:18:31.737Z,988.49
2018-10-07T04:19:31.828Z,988.53
2018-10-07T04:20:31.917Z,988.48
2018-10-07T04:21:32.010Z,988.44
2018-10-07T04:22:32.105Z,988.49
2018-10-07T04:23:32.189Z,988.45
2018-10-07T04:24:32.281Z,988.50
2018-10-07T04:25:32.373Z,988.47
2018-10-07T04:26:32.463Z,988.46
2018-10-07T04:27:32.555Z,988.57
2018-10-07T04:28:32.649Z,988.57
2018-10-07T04:29:32.742Z,988.60
2018-10-07T04:30:32.833Z,988.60
2018-10-07T04:31:32.927Z,988.60
2018-10-07T04:32:33.018Z,988.58
2018-10-07T04:33:33.110Z,988.59
2018-10-07T04:34:33.203Z,988.53
2018-10-07T04:35:33.290Z,988.46
2018-10-07T04:36:33.383Z,988.46
2018-10-07T04:37:33.476Z,988.47
2018-10-07T04:38:33.573Z,988.50
2018-10-07T04:39:33.669Z,988.57
2018-10-07T04:40:33.755Z,988.56
2018-10-07T04:41:33.845Z,988.57
2018-10-07T04:42:33.941Z,988.62
2018-10-07T04:43:34.026Z,988.57
2018-10-07T04:44:34.119Z,988.60
2018-10-07T04:45:34.212Z,988.66
2018-10-07T04:46:34.302Z,988.70
2018-10-07T04:47:34.391Z,988.70
2018-10-07T04:48:34.502Z,988.70
2018-10-07T04:49:34.592Z,988.67
2018-10-07T04:50:34.685Z,988.67
2018-10-07T04:51:34.777Z,988.74
2018-10-07T04:52:34.869Z,988.79
2018-10-07T04:53:34.959Z,988.80
2018-10-07T04:54:35.051Z,988.74
2018-10-07T04:55:35.143Z,988.71
2018-10-07T04:56:35.236Z,988.71
2018-10-07T04:57:35.327Z,988.78
2018-10-07T04:58:35.417Z,988.80
2018-10-07T04:59:35.511Z,988.88
2018-10-07T05:00:35.602Z,988.87
2018-10-07T05:01:35.696Z,988.88
2018-10-07T05:02:35.785Z,988.89
2018-10-07T05:03:35.876Z,988.85
2018-10-07T05:04:35.968Z,988.87
2018-10-07T05:05:36.057Z,988.86
2018-10-07T05:06:36.154Z,988.91
2018-10-07T05:07:36.243Z,988.93
2018-10-07T05:08:36.335Z,988.99
2018-10-07T05:09:36.424Z,989.00
2018-10-07T05:10:36.515Z,989.00
2018-10-07T05:11:36.607Z,988.98
2018-10-07T05:12:36.705Z,989.06
2018-10-07T05:13:36.790Z,989.08
2018-10-07T05:14:36.881Z,989.12
2018-10-07T05:15:36.972Z,989.16
2018-10-07T05:16:37.066Z,989.20
2018-10-07T05:17:37.157Z,989.24
2018-10-07T05:18:37.278Z,989.27
2018-10-07T05:19:37.358Z,989.28
2018-10-07T05:20:37.457Z,989.26
2018-10-07T05:21:37.551Z,989.25
2018-10-07T05:22:37.640Z,989.22
2018-10-07T05:23:37.735Z,989.20
2018-10-07T05:24:37.823Z,989.17
2018-10-07T05:25:37.914Z,989.24
2018-10-07T05:26:38.006Z,989.21
2018-10-07T05:27:38.103Z,989.23
2018-10-07T05:28:38.191Z,989.27
2018-10-07T05:29:38.279Z,989.26
2018-10-07T05:30:38.372Z,989.30
2018-10-07T05:31:38.468Z,989.31
2018-10-07T05:32:38.557Z,989.37
2018-10-07T05:33:38.650Z,989.41
2018-10-07T05:34:38.737Z,989.42
2018-10-07T05:35:38.830Z,989.43
2018-10-07T05:36:38.919Z,989.44
2018-10-07T05:37:39.013Z,989.46
2018-10-07T05:38:39.103Z,989.48
2018-10-07T05:39:39.195Z,989.51
2018-10-07T05:40:39.286Z,989.48
2018-10-07T05:41:39.380Z,989.52
2018-10-07T05:42:39.469Z,989.59
2018-10-07T05:43:39.561Z,989.61
2018-10-07T05:44:39.706Z,989.64
2018-10-07T05:45:39.744Z,989.66
2018-10-07T05:46:39.831Z,989.67
2018-10-07T05:47:39.921Z,989.66
2018-10-07T05:48:40.014Z,989.68
2018-10-07T05:49:40.106Z,989.73
2018-10-07T05:50:40.196Z,989.75
2018-10-07T05:51:40.290Z,989.74
2018-10-07T05:52:40.381Z,989.76
2018-10-07T05:53:40.473Z,989.81
2018-10-07T05:54:40.567Z,989.82
2018-10-07T05:55:40.709Z,989.86
2018-10-07T05:56:40.747Z,989.89
2018-10-07T05:59:12.319Z,989.86
2018-10-07T06:00:12.410Z,989.91
2018-10-07T06:01:12.503Z,989.91
2018-10-07T06:02:12.605Z,989.94
2018-10-07T06:03:12.686Z,989.98
2018-10-07T06:04:12.774Z,990.00
2018-10-07T06:05:12.867Z,990.02
2018-10-07T06:06:12.960Z,990.04
2018-10-07T06:07:13.049Z,990.04
2018-10-07T06:08:13.143Z,990.04
2018-10-07T06:09:13.235Z,990.00
2018-10-07T06:10:13.334Z,989.97
2018-10-07T06:11:13.407Z,990.01
2018-10-07T06:12:13.497Z,990.01
2018-10-07T06:13:13.589Z,990.04
2018-10-07T06:14:13.681Z,990.06
2018-10-07T06:15:13.772Z,990.10
2018-10-07T06:16:13.864Z,990.12
2018-10-07T06:17:13.981Z,990.17
2018-10-07T06:18:14.044Z,990.19
2018-10-07T06:19:14.141Z,990.18
2018-10-07T06:20:14.233Z,990.22
2018-10-07T06:21:14.323Z,990.25
2018-10-07T06:22:14.415Z,990.33
2018-10-07T06:23:14.507Z,990.42
2018-10-07T06:24:14.595Z,990.46
2018-10-07T06:25:14.683Z,990.47
2018-10-07T06:26:14.777Z,990.44
2018-10-07T06:27:14.867Z,990.49
2018-10-07T06:28:14.960Z,990.46
2018-10-07T06:29:15.053Z,990.47
2018-10-07T06:30:15.143Z,990.49
2018-10-07T06:31:15.235Z,990.46
2018-10-07T06:32:15.328Z,990.51
2018-10-07T06:33:15.415Z,990.49
2018-10-07T06:34:15.510Z,990.52
2018-10-07T06:35:15.599Z,990.52
2018-10-07T06:36:15.691Z,990.54
2018-10-07T06:37:15.781Z,990.51
2018-10-07T06:38:15.880Z,990.61
2018-10-07T06:39:15.975Z,990.62
2018-10-07T06:40:16.065Z,990.65
2018-10-07T06:41:16.166Z,990.65
2018-10-07T06:42:16.250Z,990.69
2018-10-07T06:43:16.335Z,990.69
2018-10-07T06:44:16.436Z,990.70
2018-10-07T06:45:16.528Z,990.68
2018-10-07T06:46:16.621Z,990.69
2018-10-07T06:47:16.713Z,990.74
2018-10-07T06:48:16.881Z,990.72
2018-10-07T06:49:16.935Z,990.69
2018-10-07T06:50:17.032Z,990.74
2018-10-07T06:51:17.107Z,990.77
2018-10-07T06:52:17.198Z,990.78
2018-10-07T06:53:17.291Z,990.86
2018-10-07T06:54:17.385Z,990.87
2018-10-07T06:55:17.477Z,990.91
2018-10-07T06:56:17.557Z,990.95
2018-10-07T06:57:17.654Z,990.94
2018-10-07T06:58:17.748Z,990.91
2018-10-07T06:59:17.837Z,990.92
2018-10-07T07:00:17.936Z,990.93
2018-10-07T07:01:18.021Z,990.92
2018-10-07T07:02:18.136Z,990.97
2018-10-07T07:03:18.229Z,990.97
2018-10-07T07:04:18.321Z,990.95
2018-10-07T07:05:18.413Z,990.94
2018-10-07T07:06:18.561Z,990.90
2018-10-07T07:07:18.600Z,990.92
2018-10-07T07:08:18.693Z,990.92
2018-10-07T07:09:18.780Z,990.96
2018-10-07T07:10:18.879Z,990.93
2018-10-07T07:11:18.971Z,990.98
2018-10-07T07:12:19.063Z,990.98
2018-10-07T07:13:19.161Z,990.99
2018-10-07T07:14:19.251Z,991.00
2018-10-07T07:15:19.354Z,991.06
2018-10-07T07:16:19.449Z,991.08
2018-10-07T07:17:19.540Z,991.07
2018-10-07T07:18:19.669Z,991.13
2018-10-07T07:19:19.739Z,991.13
2018-10-07T07:20:19.904Z,991.16
2018-10-07T07:21:19.921Z,991.17
2018-10-07T07:22:20.014Z,991.18
2018-10-07T07:23:20.098Z,991.21
2018-10-07T07:24:20.205Z,991.21
2018-10-07T07:25:20.300Z,991.28
2018-10-07T07:26:20.392Z,991.27
2018-10-07T07:27:20.487Z,991.30
2018-10-07T07:28:20.579Z,991.27
2018-10-07T07:29:20.675Z,991.29
2018-10-07T07:30:20.761Z,991.31
2018-10-07T07:31:20.911Z,991.32
2018-10-07T07:32:20.950Z,991.38
2018-10-07T07:33:21.045Z,991.39
2018-10-07T07:34:21.132Z,991.40
2018-10-07T07:35:21.214Z,991.39
2018-10-07T07:36:21.328Z,991.40
2018-10-07T07:37:21.420Z,991.37
2018-10-07T07:38:21.512Z,991.41
2018-10-07T07:39:21.607Z,991.38
2018-10-07T07:40:21.706Z,991.37
2018-10-07T07:41:21.797Z,991.36
2018-10-07T07:42:21.916Z,991.39
2018-10-07T07:43:21.984Z,991.35
2018-10-07T07:44:22.079Z,991.34
2018-10-07T07:45:22.168Z,991.40
2018-10-07T07:46:22.265Z,991.43
2018-10-07T07:47:22.362Z,991.45
2018-10-07T07:48:22.448Z,991.45
2018-10-07T07:49:22.551Z,991.47
2018-10-07T07:50:22.644Z,991.51
2018-10-07T07:51:22.742Z,991.54
2018-10-07T07:52:22.828Z,991.51
2018-10-07T07:53:22.923Z,991.56
2018-10-07T07:54:23.023Z,991.60
2018-10-07T07:55:23.110Z,991.59
2018-10-07T07:56:23.206Z,991.67
2018-10-07T07:57:23.296Z,991.67
2018-10-07T07:58:23.391Z,991.68
2018-10-07T07:59:23.479Z,991.73
2018-10-07T08:00:23.575Z,991.77
2018-10-07T08:01:23.661Z,991.77
2018-10-07T08:02:23.751Z,991.79
2018-10-07T08:03:23.844Z,991.77
2018-10-07T08:04:23.935Z,991.78
2018-10-07T08:05:24.028Z,991.83
2018-10-07T08:06:24.125Z,991.84
2018-10-07T08:07:24.218Z,991.83
2018-10-07T08:08:24.310Z,991.89
2018-10-07T08:09:24.445Z,991.92
2018-10-07T08:10:24.494Z,991.95
2018-10-07T08:11:24.590Z,991.96
2018-10-07T08:12:24.680Z,991.97
2018-10-07T08:13:24.776Z,992.04
2018-10-07T08:14:24.868Z,992.02
2018-10-07T08:15:24.959Z,992.03
2018-10-07T08:16:25.049Z,992.05
2018-10-07T08:17:25.163Z,992.06
2018-10-07T08:18:25.240Z,992.10
2018-10-07T08:19:25.332Z,992.15
2018-10-07T08:20:25.426Z,992.15
2018-10-07T08:21:25.520Z,992.11
2018-10-07T08:22:25.613Z,992.18
2018-10-07T08:23:25.723Z,992.18
2018-10-07T08:24:25.803Z,992.20
2018-10-07T08:25:25.896Z,992.24
2018-10-07T08:26:25.989Z,992.22
2018-10-07T08:27:26.084Z,992.23
2018-10-07T08:28:26.177Z,992.23
2018-10-07T08:29:26.294Z,992.26
2018-10-07T08:30:26.369Z,992.30
2018-10-07T08:31:26.459Z,992.31
2018-10-07T08:32:26.557Z,992.34
2018-10-07T08:33:26.655Z,992.32
2018-10-07T08:34:26.746Z,992.37
2018-10-07T08:35:26.936Z,992.34
2018-10-07T08:36:26.931Z,992.31
2018-10-07T08:37:27.012Z,992.36
2018-10-07T08:38:27.108Z,992.37
2018-10-07T08:39:27.214Z,992.37
2018-10-07T08:40:27.307Z,992.42
2018-10-07T08:41:27.406Z,992.47
2018-10-07T08:42:27.498Z,992.55
2018-10-07T08:43:27.609Z,992.53
2018-10-07T08:44:27.713Z,992.58
2018-10-07T08:45:27.803Z,992.61
2018-10-07T08:46:27.901Z,992.63
2018-10-07T08:47:27.996Z,992.62
2018-10-07T08:48:28.105Z,992.63
2018-10-07T08:49:28.183Z,992.65
2018-10-07T08:50:28.276Z,992.66
2018-10-07T08:51:28.372Z,992.70
2018-10-07T08:52:28.464Z,992.76
2018-10-07T08:53:28.562Z,992.75
2018-10-07T08:54:28.651Z,992.79
2018-10-07T08:55:28.746Z,992.82
2018-10-07T08:56:28.893Z,992.84
2018-10-07T08:57:28.930Z,992.87
2018-10-07T08:58:29.024Z,992.90
2018-10-07T08:59:29.140Z,992.93
2018-10-07T09:00:29.236Z,992.94
2018-10-07T09:01:29.327Z,992.99
2018-10-07T09:02:29.420Z,992.93
2018-10-07T09:03:29.515Z,992.96
2018-10-07T09:04:29.609Z,992.89
2018-10-07T09:05:29.701Z,992.96
2018-10-07T09:06:29.788Z,992.99
2018-10-07T09:07:29.880Z,993.07
2018-10-07T09:08:29.970Z,993.07
2018-10-07T09:09:30.090Z,993.09
2018-10-07T09:10:30.153Z,993.11
2018-10-07T09:11:30.256Z,993.11
2018-10-07T09:12:30.364Z,993.14
2018-10-07T09:13:30.452Z,993.16
2018-10-07T09:14:30.573Z,993.18
2018-10-07T09:15:30.640Z,993.26
2018-10-07T09:16:30.736Z,993.29
2018-10-07T09:17:30.829Z,993.32
2018-10-07T09:18:30.921Z,993.32
2018-10-07T09:19:31.019Z,993.37
2018-10-07T09:20:31.108Z,993.40
2018-10-07T09:21:31.202Z,993.40
2018-10-07T09:22:31.296Z,993.41
2018-10-07T09:23:31.392Z,993.45
2018-10-07T09:24:31.483Z,993.45
2018-10-07T09:25:31.587Z,993.46
2018-10-07T09:26:31.681Z,993.51
2018-10-07T09:27:31.845Z,993.50
2018-10-07T09:28:31.868Z,993.59
2018-10-07T09:29:31.961Z,993.49
2018-10-07T09:30:32.052Z,993.59
2018-10-07T09:31:32.146Z,993.57
2018-10-07T09:32:32.394Z,993.58
2018-10-07T09:33:32.330Z,993.54
2018-10-07T09:34:32.423Z,993.54
2018-10-07T09:35:32.519Z,993.53
2018-10-07T09:36:32.673Z,993.54
2018-10-07T09:37:32.714Z,993.62
2018-10-07T09:38:32.810Z,993.61
2018-10-07T09:39:32.920Z,993.66
2018-10-07T09:40:32.997Z,993.66
2018-10-07T09:41:33.090Z,993.67
2018-10-07T09:42:33.184Z,993.66
2018-10-07T09:43:33.277Z,993.64
2018-10-07T09:44:33.372Z,993.65
2018-10-07T09:45:33.462Z,993.62
2018-10-07T09:46:33.555Z,993.62
2018-10-07T09:47:33.650Z,993.58
2018-10-07T09:48:33.740Z,993.65
2018-10-07T09:49:33.836Z,993.69
2018-10-07T09:50:33.931Z,993.71
2018-10-07T09:51:34.033Z,993.74
2018-10-07T09:52:34.131Z,993.75
2018-10-07T09:53:34.221Z,993.72
2018-10-07T09:54:34.315Z,993.69
2018-10-07T09:55:34.408Z,993.65
2018-10-07T09:56:34.505Z,993.64
2018-10-07T09:57:34.599Z,993.62
2018-10-07T09:58:34.695Z,993.65
2018-10-07T09:59:34.790Z,993.66
2018-10-07T10:00:34.882Z,993.68
2018-10-07T10:01:34.979Z,993.68
2018-10-07T10:02:35.064Z,993.63
2018-10-07T10:03:35.157Z,993.66
2018-10-07T10:04:35.325Z,993.64
2018-10-07T10:05:35.353Z,993.68
2018-10-07T10:06:35.445Z,993.63
2018-10-07T10:07:35.538Z,993.68
2018-10-07T10:08:35.634Z,993.69
2018-10-07T10:09:35.722Z,993.74
2018-10-07T10:10:35.822Z,993.75
2018-10-07T10:11:35.908Z,993.81
2018-10-07T10:12:36.008Z,993.81
2018-10-07T10:13:36.100Z,993.79
2018-10-07T10:14:36.193Z,993.83
2018-10-07T10:15:36.285Z,993.86
2018-10-07T10:16:36.378Z,993.91
2018-10-07T10:17:36.541Z,993.97
2018-10-07T10:18:36.573Z,993.98
2018-10-07T10:19:36.726Z,994.01
2018-10-07T10:20:36.762Z,994.01
2018-10-07T10:21:36.857Z,994.02
2018-10-07T10:22:36.987Z,994.02
2018-10-07T10:23:37.035Z,994.04
2018-10-07T10:24:37.121Z,994.04
2018-10-07T10:25:37.212Z,994.05
2018-10-07T10:26:37.305Z,994.05
2018-10-07T10:27:37.399Z,994.05
2018-10-07T10:28:37.493Z,994.11
2018-10-07T10:29:37.584Z,994.10
2018-10-07T10:30:37.698Z,994.09
2018-10-07T10:31:37.764Z,994.10
2018-10-07T10:32:37.857Z,994.10
2018-10-07T10:33:37.961Z,994.10
2018-10-07T10:34:38.050Z,994.10
2018-10-07T10:35:38.148Z,994.10
2018-10-07T10:36:38.290Z,994.11
2018-10-07T10:37:38.335Z,994.08
2018-10-07T10:38:38.426Z,994.07
2018-10-07T10:39:38.633Z,994.09
2018-10-07T10:40:38.624Z,994.10
2018-10-07T10:41:38.716Z,994.08
2018-10-07T10:42:38.803Z,994.09
2018-10-07T10:43:38.902Z,994.12
2018-10-07T10:44:38.986Z,994.16
2018-10-07T10:45:39.081Z,994.15
2018-10-07T10:46:39.176Z,994.16
2018-10-07T10:47:39.271Z,994.18
2018-10-07T10:48:39.363Z,994.16
2018-10-07T10:49:39.459Z,994.16
2018-10-07T10:50:39.552Z,994.16
2018-10-07T10:51:39.644Z,994.22
2018-10-07T10:52:39.737Z,994.24
2018-10-07T10:53:39.834Z,994.19
2018-10-07T10:54:39.923Z,994.23
2018-10-07T10:55:40.016Z,994.23
2018-10-07T10:56:40.112Z,994.18
2018-10-07T10:57:40.201Z,994.13
2018-10-07T10:58:40.292Z,994.14
2018-10-07T10:59:40.392Z,994.15
2018-10-07T11:00:40.485Z,994.15
2018-10-07T11:01:40.588Z,994.16
2018-10-07T11:02:40.681Z,994.15
2018-10-07T11:03:40.771Z,994.17
2018-10-07T11:04:40.895Z,994.19
2018-10-07T11:05:40.955Z,994.20
2018-10-07T11:06:41.049Z,994.20
2018-10-07T11:07:41.143Z,994.21
2018-10-07T11:08:41.231Z,994.19
2018-10-07T11:09:41.318Z,994.22
2018-10-07T11:10:41.415Z,994.26
2018-10-07T11:11:41.508Z,994.30
2018-10-07T11:12:41.599Z,994.28
2018-10-07T11:13:41.724Z,994.25
2018-10-07T11:14:41.787Z,994.30
2018-10-07T11:15:41.928Z,994.30
2018-10-07T11:16:41.986Z,994.30
2018-10-07T11:17:42.083Z,994.34
2018-10-07T11:18:42.172Z,994.37
2018-10-07T11:19:42.268Z,994.34
2018-10-07T11:20:42.358Z,994.32
2018-10-07T11:21:42.450Z,994.35
2018-10-07T11:22:42.544Z,994.33
2018-10-07T11:23:42.641Z,994.37
2018-10-07T11:24:42.735Z,994.35
2018-10-07T11:25:42.832Z,994.34
2018-10-07T11:26:42.923Z,994.35
2018-10-07T11:27:43.017Z,994.38
2018-10-07T11:28:43.113Z,994.34
2018-10-07T11:29:43.211Z,994.37
2018-10-07T11:30:43.305Z,994.32
2018-10-07T11:31:43.405Z,994.38
2018-10-07T11:32:43.500Z,994.36
2018-10-07T11:33:43.597Z,994.30
2018-10-07T11:34:44.517Z,994.35
2018-10-07T11:35:43.772Z,994.33
2018-10-07T11:36:43.873Z,994.34
2018-10-07T11:37:43.971Z,994.32
2018-10-07T11:38:44.071Z,994.36
2018-10-07T11:39:44.164Z,994.35
2018-10-07T11:40:44.276Z,994.37
2018-10-07T11:41:44.357Z,994.36
2018-10-07T11:42:44.455Z,994.38
2018-10-07T11:43:44.549Z,994.34
2018-10-07T11:44:44.643Z,994.37
2018-10-07T11:45:44.746Z,994.36
2018-10-07T11:46:44.841Z,994.36
2018-10-07T11:47:44.946Z,994.33
2018-10-07T11:48:45.929Z,994.38
2018-10-07T11:49:45.130Z,994.39
2018-10-07T11:50:45.227Z,994.42
2018-10-07T11:51:45.323Z,994.37
2018-10-07T11:52:45.425Z,994.38
2018-10-07T11:53:45.533Z,994.38
2018-10-07T11:54:45.633Z,994.38
2018-10-07T11:55:45.730Z,994.35
2018-10-07T11:56:45.824Z,994.38
2018-10-07T11:57:45.924Z,994.36
2018-10-07T11:58:46.017Z,994.38
2018-10-07T11:59:55.511Z,994.37
2018-10-07T12:00:46.227Z,994.38
2018-10-07T12:01:46.323Z,994.32
2018-10-07T12:02:46.446Z,994.37
2018-10-07T12:03:46.510Z,994.41
2018-10-07T12:04:46.619Z,994.44
2018-10-07T12:05:46.714Z,994.38
2018-10-07T12:06:46.807Z,994.41
2018-10-07T12:07:46.904Z,994.40
2018-10-07T12:08:46.999Z,994.40
2018-10-07T12:09:47.094Z,994.40
2018-10-07T12:10:47.187Z,994.35
2018-10-07T12:11:47.283Z,994.33
2018-10-07T12:12:47.374Z,994.30
2018-10-07T12:13:47.467Z,994.34
2018-10-07T12:14:47.563Z,994.34
2018-10-07T12:15:47.657Z,994.32
2018-10-07T12:16:47.753Z,994.35
2018-10-07T12:17:47.847Z,994.39
2018-10-07T12:18:47.943Z,994.39
2018-10-07T12:19:48.036Z,994.35
2018-10-07T12:20:48.128Z,994.37
2018-10-07T12:21:48.229Z,994.37
2018-10-07T12:22:48.322Z,994.41
2018-10-07T12:23:48.417Z,994.40
2018-10-07T12:24:48.503Z,994.44
2018-10-07T12:25:48.614Z,994.42
2018-10-07T12:26:48.704Z,994.46
2018-10-07T12:27:48.793Z,994.46
2018-10-07T12:28:48.901Z,994.48
2018-10-07T12:29:48.985Z,994.49
2018-10-07T12:30:49.077Z,994.56